Detall de PIREP

Printer-friendly versionPDF version

[2015/02/21 16:59:00]
Flight IATA:CT0003
Pilot Number:012
Company ICAO:CAT
Aircraft Type:DC3/A
PAX:19
Aircraft Registration:PAX
Departing Airport: LIRF
Destination Airport: LIRN
Alternate Airport:LIRA
Online: VATSIM
Route:RIFFI M729 PNZ
Flight Level:F90
No Slew and time accel
No pause
Crash detect
Detect pilot in Cockpit between each 30 and 45 minutes
16:59 Zero fuel Weight: 19837 Lbs, Fuel Weight: 1353 Lbs
16:59 VATSIM:LIRF 211620Z 11013KT 9999 -DZ FEW035 BKN045 11/05 Q1005 NOSIG
16:59 VATSIM:LIRN 211620Z 08005KT 050V120 8000 -RA SCT030 BKN050 10/06 Q1008
17:00 Parking Brakes off
17:08 Take-off
17:08 Take off Weight: 21158 Lbs
17:08 Wind: 107º @ 014 Knots Heading: 247º
17:08 POS N41º 48´ 25´´ E012º 15´ 35´´
17:09 Gear Up: 115 Knots
17:17 TOC
17:17 Fuel Weight: 1193 Lb
17:24 Wind:163º@025 Knots Heading: 142º Ground Speed: 141 Knots Altitude 8786 ft
17:39 Wind:124º@009 Knots Heading: 142º Ground Speed: 157 Knots Altitude 8822 ft
17:44 TOD
17:44 Fuel Weight: 888 Lb
17:54 Wind:105º@007 Knots Heading: 114º Ground Speed: 159 Knots Altitude 6840 ft
18:05 Gear Down: 148 Knots
18:05 Flaps:1 at 140 Knots
18:06 Flaps:2 at 120 Knots
18:06 Flaps:3 at 101 Knots
18:06 Flaps:4 at 82 Knots
18:08 TouchDown:Rate -269 ft/min Speed: 69 Knots
18:08 Flaps:2 at 15 Knots
18:08 Flaps:0 at 10 Knots
18:08 VATSIM:LIRN 211750Z 07006KT 8000 -RA SCT030 BKN050 09/06 Q1007
18:08 Land
18:08 Wind:074º@005 Knots
18:08 Heading: 060º
18:08 Flight Duration: 00:59
18:08 Landing Weight: 20501 Lbs
18:08 POS N40º 53´ 05´´ E014º 17´ 15´´
18:08 Parking brakes on
18:08 Block to Block Duration: 01:08
18:08 Final Fuel: 665 Lbls
18:08 Spent Fuel: 687 Lbls
18:08 Flight Length: 141 NM
18:08 TOD Land Length: 61 NM

Exportar CSV

Powered by Drupal - Modified by Danger4k